createdAt,value
2023-05-18T00:01:14.915Z,101886.72
2023-05-18T00:03:42.150Z,101886.41
2023-05-18T00:06:10.507Z,101889.50
2023-05-18T00:08:38.673Z,101891.34
2023-05-18T00:11:06.374Z,101888.09
2023-05-18T00:13:33.483Z,101889.47
2023-05-18T00:16:00.884Z,101893.16
2023-05-18T00:18:28.249Z,101888.41
2023-05-18T00:21:01.824Z,101886.91
2023-05-18T00:23:30.702Z,101886.06
2023-05-18T00:25:58.565Z,101881.69
2023-05-18T00:28:25.965Z,101885.72
2023-05-18T00:30:53.657Z,101884.03
2023-05-18T00:33:21.116Z,101886.75
2023-05-18T00:35:47.717Z,101886.06
2023-05-18T00:38:17.609Z,101891.84
2023-05-18T00:40:44.292Z,101895.72
2023-05-18T00:43:11.808Z,101891.16
2023-05-18T00:45:39.228Z,101890.13
2023-05-18T00:48:06.683Z,101892.34
2023-05-18T00:50:33.455Z,101891.13
2023-05-18T00:53:00.513Z,101896.56
2023-05-18T00:55:28.723Z,101896.41
2023-05-18T00:58:02.263Z,101896.22
2023-05-18T01:00:29.559Z,101896.22
2023-05-18T01:02:57.269Z,101894.38
2023-05-18T01:05:24.173Z,101896.22
2023-05-18T01:07:50.796Z,101893.53
2023-05-18T01:10:19.517Z,101891.69
2023-05-18T01:12:53.330Z,101900.31
2023-05-18T01:15:36.427Z,101904.19
2023-05-18T01:18:17.037Z,101895.63
2023-05-18T01:20:47.483Z,101903.31
2023-05-18T01:23:41.740Z,101903.19
2023-05-18T01:26:29.982Z,101908.44
2023-05-18T01:28:59.998Z,101903.63
2023-05-18T01:31:30.404Z,101896.69
2023-05-18T01:33:57.474Z,101904.16
2023-05-18T01:36:24.102Z,101911.78
2023-05-18T01:38:52.649Z,101905.25
2023-05-18T01:41:23.580Z,101917.72
2023-05-18T01:44:02.598Z,101903.69
2023-05-18T01:46:47.531Z,101903.94
2023-05-18T01:49:32.840Z,101903.72
2023-05-18T01:52:06.463Z,101906.88
2023-05-18T01:54:36.470Z,101910.41
2023-05-18T01:57:07.668Z,101911.94
2023-05-18T01:59:35.638Z,101912.31
2023-05-18T02:02:03.407Z,101908.28
2023-05-18T02:04:30.931Z,101912.84
2023-05-18T02:06:57.754Z,101909.28
2023-05-18T02:09:24.818Z,101901.81
2023-05-18T02:11:51.520Z,101897.25
2023-05-18T02:14:18.266Z,101909.84
2023-05-18T02:16:47.642Z,101897.44
2023-05-18T02:19:14.865Z,101897.94
2023-05-18T02:21:43.563Z,101892.66
2023-05-18T02:24:10.621Z,101897.50
2023-05-18T02:26:37.647Z,101900.22
2023-05-18T02:29:06.378Z,101899.31
2023-05-18T02:31:33.102Z,101901.69
2023-05-18T02:34:01.477Z,101906.13
2023-05-18T02:36:28.218Z,101908.19
2023-05-18T02:38:54.995Z,101912.06
2023-05-18T02:41:22.692Z,101905.78
2023-05-18T02:43:49.277Z,101903.75
2023-05-18T02:46:16.254Z,101905.91
2023-05-18T02:48:45.671Z,101907.75
2023-05-18T02:51:12.569Z,101912.78
2023-05-18T02:53:40.384Z,101900.91
2023-05-18T02:56:12.265Z,101899.13
2023-05-18T02:58:48.723Z,101914.81
2023-05-18T03:01:22.070Z,101909.78
2023-05-18T03:03:53.356Z,101919.91
2023-05-18T03:06:23.582Z,101914.81
2023-05-18T03:08:51.226Z,101918.13
2023-05-18T03:11:17.884Z,101909.22
2023-05-18T03:13:44.645Z,101910.63
2023-05-18T03:16:11.396Z,101913.25
2023-05-18T03:18:38.261Z,101916.94
2023-05-18T03:21:05.459Z,101911.47
2023-05-18T03:23:32.439Z,101910.78
2023-05-18T03:25:59.095Z,101919.03
2023-05-18T03:28:29.173Z,101921.88
2023-05-18T03:30:55.779Z,101912.41
2023-05-18T03:33:22.507Z,101920.78
2023-05-18T03:35:49.998Z,101919.69
2023-05-18T03:38:16.595Z,101917.56
2023-05-18T03:40:48.659Z,101929.34
2023-05-18T03:43:15.400Z,101928.81
2023-05-18T03:45:43.470Z,101936.72
2023-05-18T03:48:10.177Z,101923.50
2023-05-18T03:50:37.078Z,101940.25
2023-05-18T03:53:04.043Z,101941.78
2023-05-18T03:55:30.827Z,101936.72
2023-05-18T03:57:59.153Z,101928.00
2023-05-18T04:00:25.821Z,101938.34
2023-05-18T04:02:52.735Z,101950.81
2023-05-18T04:05:23.424Z,101943.97
2023-05-18T04:07:50.299Z,101944.66
2023-05-18T04:10:19.523Z,101937.34
2023-05-18T04:12:46.335Z,101940.22
2023-05-18T04:15:14.571Z,101940.22
2023-05-18T04:17:45.653Z,101935.78
2023-05-18T04:20:17.272Z,101955.28
2023-05-18T04:22:48.067Z,101951.72
2023-05-18T04:25:15.805Z,101952.84
2023-05-18T04:27:43.689Z,101961.41
2023-05-18T04:30:11.504Z,101956.03
2023-05-18T04:32:42.848Z,101959.81
2023-05-18T04:35:13.041Z,101967.88
2023-05-18T04:37:40.363Z,101966.97
2023-05-18T04:40:14.113Z,101971.88
2023-05-18T04:42:48.502Z,101973.63
2023-05-18T04:45:26.953Z,101968.56
2023-05-18T04:47:56.234Z,101970.78
2023-05-18T04:50:25.786Z,101972.03
2023-05-18T04:52:53.228Z,101969.81
2023-05-18T04:55:29.471Z,101982.53
2023-05-18T04:58:00.458Z,101986.91
2023-05-18T05:00:29.579Z,101984.00
2023-05-18T05:02:57.414Z,101990.38
2023-05-18T05:05:25.929Z,101987.38
2023-05-18T05:07:54.278Z,101977.88
2023-05-18T05:10:21.621Z,101981.97
2023-05-18T05:12:50.468Z,101994.31
2023-05-18T05:15:18.044Z,101985.03
2023-05-18T05:17:47.051Z,101986.03
2023-05-18T05:20:13.810Z,101989.22
2023-05-18T05:22:40.525Z,101992.56
2023-05-18T05:25:10.340Z,101998.59
2023-05-18T05:27:37.933Z,102001.81
2023-05-18T05:30:06.008Z,101998.00
2023-05-18T05:32:36.147Z,102001.06
2023-05-18T05:35:03.714Z,102004.59
2023-05-18T05:37:31.685Z,102004.97
2023-05-18T05:39:59.317Z,102005.09
2023-05-18T05:42:27.694Z,102004.72
2023-05-18T05:44:54.585Z,102009.66
2023-05-18T05:47:22.332Z,102011.47
2023-05-18T05:49:49.305Z,102014.53
2023-05-18T05:52:16.433Z,102005.41
2023-05-18T05:54:43.533Z,102004.28
2023-05-18T05:57:11.306Z,101998.06
2023-05-18T05:59:38.660Z,102002.84
2023-05-18T06:02:05.424Z,102013.94
2023-05-18T06:04:32.488Z,102008.97
2023-05-18T06:07:02.382Z,102008.22
2023-05-18T06:09:29.148Z,102013.34
2023-05-18T06:11:58.185Z,102019.78
2023-05-18T06:14:26.654Z,102024.31
2023-05-18T06:16:55.373Z,102010.75
2023-05-18T06:19:22.044Z,102021.00
2023-05-18T06:21:49.493Z,102029.56
2023-05-18T06:24:16.807Z,102030.50
2023-05-18T06:26:53.158Z,102029.31
2023-05-18T06:29:38.213Z,102024.91
2023-05-18T06:32:39.820Z,102028.81
2023-05-18T06:35:07.404Z,102034.72
2023-05-18T06:37:34.226Z,102040.97
2023-05-18T06:40:01.142Z,102042.03
2023-05-18T06:42:29.994Z,102043.31
2023-05-18T06:45:22.572Z,102051.56
2023-05-18T06:47:53.065Z,102065.03
2023-05-18T06:50:19.777Z,102080.72
2023-05-18T06:52:47.535Z,102086.00
2023-05-18T06:55:15.338Z,102082.41
2023-05-18T06:57:42.259Z,102090.16
2023-05-18T07:00:10.402Z,102088.78
2023-05-18T07:02:37.216Z,102100.25
2023-05-18T07:05:06.578Z,102100.81
2023-05-18T07:07:33.155Z,102102.22
2023-05-18T07:09:59.837Z,102092.69
2023-05-18T07:12:27.332Z,102089.03
2023-05-18T07:14:53.971Z,102088.22
2023-05-18T07:17:20.625Z,102089.94
2023-05-18T07:19:47.196Z,102085.16
2023-05-18T07:22:13.976Z,102080.19
2023-05-18T07:24:41.176Z,102080.13
2023-05-18T07:27:07.844Z,102081.00
2023-05-18T07:29:35.083Z,102083.38
2023-05-18T07:32:02.557Z,102074.69
2023-05-18T07:34:29.253Z,102075.41
2023-05-18T07:36:56.060Z,102070.72
2023-05-18T07:39:28.428Z,102070.88
2023-05-18T07:41:56.330Z,102056.59
2023-05-18T07:44:22.942Z,102068.38
2023-05-18T07:46:49.662Z,102067.94
2023-05-18T07:49:16.371Z,102071.47
2023-05-18T07:51:43.003Z,102065.28
2023-05-18T07:54:10.263Z,102058.00
2023-05-18T07:56:36.890Z,102056.03
2023-05-18T07:59:03.499Z,102060.00
2023-05-18T08:01:30.357Z,102059.22
2023-05-18T08:03:57.063Z,102061.00
2023-05-18T08:06:24.071Z,102059.56
2023-05-18T08:08:50.762Z,102063.94
2023-05-18T08:11:17.519Z,102064.16
2023-05-18T08:13:44.133Z,102068.59
2023-05-18T08:16:12.095Z,102062.41
2023-05-18T08:18:39.726Z,102052.34
2023-05-18T08:21:09.405Z,102059.94
2023-05-18T08:23:36.791Z,102056.81
2023-05-18T08:26:03.634Z,102053.00
2023-05-18T08:28:31.380Z,102046.97
2023-05-18T08:30:58.257Z,102057.31
2023-05-18T08:33:24.847Z,102056.63
2023-05-18T08:35:51.871Z,102063.25
2023-05-18T08:38:18.454Z,102061.41
2023-05-18T08:41:16.717Z,102056.75
2023-05-18T08:43:46.878Z,102051.34
2023-05-18T08:46:16.942Z,102064.50
2023-05-18T08:48:46.609Z,102060.72
2023-05-18T08:51:19.657Z,102063.06
2023-05-18T08:53:52.365Z,102054.94
2023-05-18T08:56:22.935Z,102049.06
2023-05-18T08:58:51.533Z,102048.53
2023-05-18T09:01:18.356Z,102046.81
2023-05-18T09:03:49.198Z,102048.47
2023-05-18T09:06:16.476Z,102035.31
2023-05-18T09:08:43.370Z,102031.81
2023-05-18T09:11:11.290Z,102033.41
2023-05-18T09:13:38.765Z,102033.31
2023-05-18T09:16:07.798Z,102027.84
2023-05-18T09:18:34.549Z,102034.16
2023-05-18T09:21:01.517Z,102035.34
2023-05-18T09:23:28.547Z,102033.09
2023-05-18T09:25:55.876Z,102046.50
2023-05-18T09:28:37.136Z,102037.16
2023-05-18T09:31:05.383Z,102038.09
2023-05-18T09:33:40.065Z,102030.63
2023-05-18T09:36:11.134Z,102027.97
2023-05-18T09:38:39.210Z,102025.91
2023-05-18T09:41:17.376Z,102011.94
2023-05-18T09:43:46.305Z,102003.00
2023-05-18T09:46:14.247Z,102009.25
2023-05-18T09:48:44.201Z,102009.69
2023-05-18T09:51:16.176Z,102007.03
2023-05-18T09:53:47.364Z,102004.69
2023-05-18T09:56:17.703Z,102007.88
2023-05-18T09:58:45.853Z,101998.75
2023-05-18T10:01:12.529Z,102007.03
2023-05-18T10:03:39.317Z,102003.16
2023-05-18T10:06:13.243Z,102001.25
2023-05-18T10:08:40.984Z,102003.25
2023-05-18T10:11:08.148Z,102002.94
2023-05-18T10:13:35.418Z,102008.69
2023-05-18T10:16:04.812Z,102008.38
2023-05-18T10:18:35.269Z,101995.94
2023-05-18T10:21:04.257Z,102000.47
2023-05-18T10:23:32.271Z,101996.09
2023-05-18T10:25:59.852Z,101991.19
2023-05-18T10:28:30.761Z,101981.47
2023-05-18T10:30:59.543Z,101990.56
2023-05-18T10:33:30.585Z,101988.28
2023-05-18T10:35:58.433Z,101989.03
2023-05-18T10:38:26.951Z,101989.63
2023-05-18T10:40:55.719Z,101988.72
2023-05-18T10:43:27.177Z,101987.63
2023-05-18T10:45:57.097Z,101995.22
2023-05-18T10:48:25.018Z,101980.00
2023-05-18T10:50:54.352Z,101984.22
2023-05-18T10:53:23.327Z,101987.22
2023-05-18T10:55:51.574Z,101992.16
2023-05-18T10:58:20.099Z,101995.78
2023-05-18T11:00:51.225Z,101996.28
2023-05-18T11:03:19.881Z,102000.84
2023-05-18T11:06:03.014Z,101977.56
2023-05-18T11:08:30.086Z,101979.50
2023-05-18T11:11:04.936Z,101964.22
2023-05-18T11:13:33.017Z,101968.47
2023-05-18T11:16:00.044Z,101971.72
2023-05-18T11:18:34.681Z,101974.22
2023-05-18T11:21:01.572Z,101977.94
2023-05-18T11:23:32.672Z,101972.56
2023-05-18T11:26:05.509Z,101973.94
2023-05-18T11:28:33.568Z,101971.44
2023-05-18T11:31:00.743Z,101970.81
2023-05-18T11:33:32.445Z,101973.28
2023-05-18T11:36:13.395Z,101965.47
2023-05-18T11:38:55.853Z,101959.66
2023-05-18T11:41:46.817Z,101954.16
2023-05-18T11:44:16.764Z,101964.06
2023-05-18T11:47:04.792Z,101955.88
2023-05-18T11:49:43.593Z,101953.97
2023-05-18T11:52:22.510Z,101949.59
2023-05-18T11:54:54.027Z,101951.13
2023-05-18T11:57:24.599Z,101941.59
2023-05-18T11:59:56.583Z,101940.88
2023-05-18T12:02:28.316Z,101939.75
2023-05-18T12:04:57.282Z,101937.75
2023-05-18T12:07:28.356Z,101947.16
2023-05-18T12:09:59.810Z,101951.75
2023-05-18T12:12:27.576Z,101946.47
2023-05-18T12:14:58.740Z,101945.25
2023-05-18T12:17:46.434Z,101954.91
2023-05-18T12:20:25.130Z,101948.44
2023-05-18T12:22:54.126Z,101944.75
2023-05-18T12:25:23.809Z,101932.25
2023-05-18T12:27:52.093Z,101926.31
2023-05-18T12:30:21.508Z,101935.41
2023-05-18T12:32:53.089Z,101921.16
2023-05-18T12:35:26.765Z,101911.97
2023-05-18T12:37:58.055Z,101916.00
2023-05-18T12:40:25.213Z,101905.06
2023-05-18T12:43:05.287Z,101901.78
2023-05-18T12:45:34.237Z,101893.03
2023-05-18T12:48:09.253Z,101903.59
2023-05-18T12:50:37.161Z,101888.81
2023-05-18T12:53:03.780Z,101894.94
2023-05-18T12:55:32.705Z,101894.88
2023-05-18T12:58:15.668Z,101892.91
2023-05-18T13:00:46.517Z,101896.19
2023-05-18T13:03:16.743Z,101901.00
2023-05-18T13:05:45.814Z,101902.09
2023-05-18T13:08:19.139Z,101907.78
2023-05-18T13:10:45.856Z,101901.53
2023-05-18T13:13:16.256Z,101911.09
2023-05-18T13:15:43.645Z,101905.00
2023-05-18T13:18:11.776Z,101907.34
2023-05-18T13:20:44.371Z,101898.19
2023-05-18T13:23:13.789Z,101891.31
2023-05-18T13:25:41.989Z,101883.78
2023-05-18T13:28:12.354Z,101881.47
2023-05-18T13:30:42.081Z,101886.41
2023-05-18T13:33:08.951Z,101889.03
2023-05-18T13:35:36.538Z,101883.44
2023-05-18T13:38:03.340Z,101887.63
2023-05-18T13:40:30.216Z,101884.25
2023-05-18T13:42:56.813Z,101879.34
2023-05-18T13:45:23.613Z,101873.97
2023-05-18T13:47:51.702Z,101876.09
2023-05-18T13:50:19.118Z,101868.47
2023-05-18T13:52:47.408Z,101866.38
2023-05-18T13:55:14.219Z,101854.31
2023-05-18T13:57:41.740Z,101851.63
2023-05-18T14:00:12.805Z,101846.59
2023-05-18T14:02:44.214Z,101850.94
2023-05-18T14:05:11.232Z,101845.66
2023-05-18T14:07:38.627Z,101851.09
2023-05-18T14:10:05.551Z,101855.69
2023-05-18T14:12:32.989Z,101847.59
2023-05-18T14:15:00.039Z,101851.75
2023-05-18T14:17:27.529Z,101850.28
2023-05-18T14:19:54.411Z,101834.16
2023-05-18T14:22:21.950Z,101834.22
2023-05-18T14:24:49.234Z,101830.78
2023-05-18T14:27:16.095Z,101828.03
2023-05-18T14:29:42.621Z,101826.75
2023-05-18T14:32:09.138Z,101833.75
2023-05-18T14:34:35.770Z,101824.59
2023-05-18T14:37:02.343Z,101824.66
2023-05-18T14:39:28.925Z,101827.91
2023-05-18T14:41:55.821Z,101823.22
2023-05-18T14:44:22.499Z,101820.53
2023-05-18T14:46:49.563Z,101818.81
2023-05-18T14:49:16.116Z,101806.47
2023-05-18T14:51:42.586Z,101812.03
2023-05-18T14:54:09.117Z,101804.88
2023-05-18T14:56:35.756Z,101807.13
2023-05-18T14:59:02.272Z,101808.41
2023-05-18T15:01:28.829Z,101803.22
2023-05-18T15:03:55.548Z,101795.84
2023-05-18T15:06:22.278Z,101806.47
2023-05-18T15:08:48.865Z,101796.88
2023-05-18T15:11:15.548Z,101802.28
2023-05-18T15:13:42.498Z,101791.66
2023-05-18T15:16:09.889Z,101797.13
2023-05-18T15:21:02.962Z,101792.47
2023-05-18T15:23:29.482Z,101797.25
2023-05-18T15:25:56.136Z,101800.63
2023-05-18T15:28:22.633Z,101797.81
2023-05-18T15:30:49.156Z,101788.88
2023-05-18T15:33:15.945Z,101789.47
2023-05-18T15:35:42.584Z,101794.56
2023-05-18T15:38:09.693Z,101781.41
2023-05-18T15:40:36.522Z,101781.78
2023-05-18T15:43:03.764Z,101782.00
2023-05-18T15:45:30.549Z,101779.28
2023-05-18T15:47:57.073Z,101784.94
2023-05-18T15:50:23.874Z,101786.06
2023-05-18T15:52:50.999Z,101777.53
2023-05-18T15:55:20.900Z,101772.34
2023-05-18T15:57:47.428Z,101770.41
2023-05-18T16:00:15.346Z,101770.81
2023-05-18T16:02:41.908Z,101771.50
2023-05-18T16:05:08.618Z,101771.34
2023-05-18T16:07:35.400Z,101774.13
2023-05-18T16:10:01.964Z,101773.16
2023-05-18T16:12:28.738Z,101768.56
2023-05-18T16:14:55.317Z,101766.63
2023-05-18T16:17:22.412Z,101770.34
2023-05-18T16:19:48.908Z,101767.81
2023-05-18T16:22:15.398Z,101782.88
2023-05-18T16:24:42.315Z,101774.13
2023-05-18T16:27:08.815Z,101773.13
2023-05-18T16:29:35.371Z,101778.69
2023-05-18T16:32:01.980Z,101773.09
2023-05-18T16:34:28.650Z,101774.44
2023-05-18T16:36:56.152Z,101770.41
2023-05-18T16:39:24.094Z,101775.22
2023-05-18T16:41:51.836Z,101772.94
2023-05-18T16:44:18.364Z,101788.44
2023-05-18T16:46:45.025Z,101772.84
2023-05-18T16:49:11.604Z,101776.28
2023-05-18T16:51:38.433Z,101776.06
2023-05-18T16:54:06.819Z,101773.00
2023-05-18T16:56:34.414Z,101778.75
2023-05-18T16:59:01.373Z,101781.09
2023-05-18T17:01:29.200Z,101777.38
2023-05-18T17:03:56.543Z,101780.69
2023-05-18T17:06:23.575Z,101774.78
2023-05-18T17:08:57.140Z,101774.41
2023-05-18T17:11:25.996Z,101770.66
2023-05-18T17:13:52.584Z,101780.53
2023-05-18T17:16:20.268Z,101777.03
2023-05-18T17:18:47.018Z,101778.50
2023-05-18T17:21:13.766Z,101780.72
2023-05-18T17:23:40.293Z,101793.03
2023-05-18T17:26:07.005Z,101792.69
2023-05-18T17:28:34.023Z,101785.09
2023-05-18T17:31:00.648Z,101784.75
2023-05-18T17:33:27.371Z,101786.69
2023-05-18T17:35:54.429Z,101776.16
2023-05-18T17:38:22.552Z,101786.84
2023-05-18T17:40:49.188Z,101786.47
2023-05-18T17:43:15.790Z,101781.88
2023-05-18T17:45:42.385Z,101784.75
2023-05-18T17:48:09.145Z,101789.75
2023-05-18T17:50:37.765Z,101785.59
2023-05-18T17:53:04.884Z,101779.25
2023-05-18T17:55:31.944Z,101788.88
2023-05-18T17:58:01.154Z,101782.28
2023-05-18T18:00:27.924Z,101781.13
2023-05-18T18:02:55.849Z,101786.06
2023-05-18T18:05:22.611Z,101793.13
2023-05-18T18:07:50.866Z,101788.91
2023-05-18T18:10:17.652Z,101794.22
2023-05-18T18:12:44.376Z,101792.38
2023-05-18T18:15:11.740Z,101791.75
2023-05-18T18:17:38.554Z,101794.81
2023-05-18T18:20:08.062Z,101795.50
2023-05-18T18:22:36.021Z,101796.00
2023-05-18T18:25:03.361Z,101801.47
2023-05-18T18:27:30.333Z,101802.47
2023-05-18T18:29:57.202Z,101807.50
2023-05-18T18:32:23.956Z,101803.38
2023-05-18T18:34:51.126Z,101795.31
2023-05-18T18:37:18.335Z,101804.91
2023-05-18T18:39:45.336Z,101800.41
2023-05-18T18:42:12.595Z,101812.59
2023-05-18T18:44:39.432Z,101808.25
2023-05-18T18:47:06.365Z,101807.47
2023-05-18T18:49:33.184Z,101811.47
2023-05-18T18:51:59.944Z,101801.84
2023-05-18T18:54:27.044Z,101807.94
2023-05-18T18:56:54.127Z,101810.00
2023-05-18T18:59:20.890Z,101818.13
2023-05-18T19:01:47.636Z,101813.50
2023-05-18T19:04:14.498Z,101816.28
2023-05-18T19:06:42.598Z,101823.22
2023-05-18T19:09:09.315Z,101818.25
2023-05-18T19:11:36.796Z,101828.47
2023-05-18T19:14:04.503Z,101825.25
2023-05-18T19:16:32.873Z,101833.97
2023-05-18T19:18:59.918Z,101826.75
2023-05-18T19:21:26.840Z,101836.97
2023-05-18T19:23:53.613Z,101829.94
2023-05-18T19:26:21.553Z,101837.34
2023-05-18T19:28:48.278Z,101836.97
2023-05-18T19:31:15.242Z,101841.59
2023-05-18T19:33:42.803Z,101842.59
2023-05-18T19:36:11.222Z,101844.97
2023-05-18T19:38:38.000Z,101847.81
2023-05-18T19:41:04.805Z,101846.00
2023-05-18T19:43:31.667Z,101841.44
2023-05-18T19:45:58.859Z,101846.91
2023-05-18T19:48:25.650Z,101848.69
2023-05-18T19:50:52.803Z,101848.97
2023-05-18T19:53:20.500Z,101849.44
2023-05-18T19:55:48.877Z,101849.50
2023-05-18T19:58:15.966Z,101849.00
2023-05-18T20:00:42.764Z,101848.13
2023-05-18T20:03:09.578Z,101855.91
2023-05-18T20:05:39.046Z,101859.34
2023-05-18T20:08:07.463Z,101850.56
2023-05-18T20:10:34.374Z,101858.31
2023-05-18T20:13:01.721Z,101856.41
2023-05-18T20:15:30.369Z,101851.88
2023-05-18T20:17:57.137Z,101859.50
2023-05-18T20:20:30.536Z,101863.31
2023-05-18T20:22:57.629Z,101861.09
2023-05-18T20:25:26.600Z,101860.78
2023-05-18T20:27:57.120Z,101864.66
2023-05-18T20:30:23.926Z,101865.22
2023-05-18T20:32:50.736Z,101870.09
2023-05-18T20:35:17.933Z,101871.59
2023-05-18T20:37:45.300Z,101874.25
2023-05-18T20:40:13.824Z,101870.50
2023-05-18T20:42:41.009Z,101872.25
2023-05-18T20:45:09.191Z,101880.53
2023-05-18T20:47:35.988Z,101876.81
2023-05-18T20:50:03.253Z,101884.63
2023-05-18T20:52:30.124Z,101874.47
2023-05-18T20:54:57.049Z,101886.13
2023-05-18T20:57:23.763Z,101880.91
2023-05-18T20:59:51.545Z,101886.81
2023-05-18T21:02:19.545Z,101881.59
2023-05-18T21:04:48.848Z,101882.16
2023-05-18T21:07:16.519Z,101883.81
2023-05-18T21:09:43.295Z,101877.88
2023-05-18T21:12:09.974Z,101880.78
2023-05-18T21:14:36.661Z,101877.16
2023-05-18T21:17:03.389Z,101877.22
2023-05-18T21:19:30.556Z,101882.25
2023-05-18T21:21:58.031Z,101888.09
2023-05-18T21:24:24.655Z,101886.19
2023-05-18T21:26:51.350Z,101889.91
2023-05-18T21:29:18.087Z,101890.66
2023-05-18T21:31:44.791Z,101893.97
2023-05-18T21:34:11.872Z,101893.81
2023-05-18T21:36:38.539Z,101893.66
2023-05-18T21:39:05.975Z,101882.69
2023-05-18T21:41:35.367Z,101886.25
2023-05-18T21:44:02.152Z,101878.97
2023-05-18T21:46:28.845Z,101876.25
2023-05-18T21:48:58.869Z,101889.44
2023-05-18T21:51:25.723Z,101878.28
2023-05-18T21:53:52.625Z,101878.97
2023-05-18T21:56:19.986Z,101882.00
2023-05-18T21:58:46.563Z,101879.47
2023-05-18T22:01:13.174Z,101877.91
2023-05-18T22:03:40.194Z,101884.03
2023-05-18T22:06:07.065Z,101878.75
2023-05-18T22:08:33.669Z,101872.50
2023-05-18T22:11:00.295Z,101885.72
2023-05-18T22:13:30.475Z,101876.22
2023-05-18T22:15:57.440Z,101879.78
2023-05-18T22:18:26.831Z,101877.78
2023-05-18T22:20:55.096Z,101877.59
2023-05-18T22:23:22.331Z,101886.72
2023-05-18T22:25:49.584Z,101871.53
2023-05-18T22:28:21.384Z,101876.22
2023-05-18T22:30:49.044Z,101878.63
2023-05-18T22:33:16.894Z,101881.91
2023-05-18T22:35:44.177Z,101872.69
2023-05-18T22:38:11.761Z,101877.22
2023-05-18T22:40:38.538Z,101883.13
2023-05-18T22:43:06.042Z,101883.22
2023-05-18T22:45:33.518Z,101872.53
2023-05-18T22:48:01.390Z,101876.75
2023-05-18T22:50:28.668Z,101879.69
2023-05-18T22:52:55.743Z,101879.31
2023-05-18T22:55:22.340Z,101871.22
2023-05-18T22:57:48.936Z,101871.00
2023-05-18T23:00:16.482Z,101867.69
2023-05-18T23:02:43.123Z,101873.31
2023-05-18T23:05:10.225Z,101873.56
2023-05-18T23:07:37.638Z,101868.69
2023-05-18T23:10:05.875Z,101867.94
2023-05-18T23:12:33.505Z,101862.34
2023-05-18T23:15:02.549Z,101863.44
2023-05-18T23:17:32.595Z,101873.72
2023-05-18T23:20:02.849Z,101861.75
2023-05-18T23:22:29.422Z,101861.47
2023-05-18T23:24:56.571Z,101862.38
2023-05-18T23:27:23.535Z,101864.88
2023-05-18T23:29:52.709Z,101865.47
2023-05-18T23:32:19.921Z,101863.44
2023-05-18T23:34:46.884Z,101858.34
2023-05-18T23:37:18.502Z,101856.38
2023-05-18T23:39:46.245Z,101855.34
2023-05-18T23:42:14.215Z,101854.28
2023-05-18T23:44:41.147Z,101860.13
2023-05-18T23:47:08.110Z,101852.19
2023-05-18T23:49:34.929Z,101854.19
2023-05-18T23:52:02.694Z,101859.66
2023-05-18T23:54:30.003Z,101851.19
2023-05-18T23:56:58.072Z,101854.06
2023-05-18T23:59:25.188Z,101864.50
